KAXA

Details ICAO KAXA
Name ALGONA MUNI
Region United States
Timezone America/Chicago (UTC-6.0)
Plans Departing 3
Arriving 1
Stats Elevation 1,219 ft / 372 m (AMSL)
Location 43.078126° -94.271748°
Runways 2
Magnetic Variation 1.191° E
Sunrise 2017-12-15 13:43:17 UTC / 2017-12-15 07:43:17 Local
Sunset 2017-12-15 22:44:13 UTC / 2017-12-15 16:44:13 Local
Advertisement - Login to hide

Runways

ID Width Length Bearing (true) Bearing (mag) Surface Threshold Offset Overrun Length
12 75 ft / 23 m 3,957 ft / 1,206 m 131.73° 130.54° Concrete 0 ft / 0 m 0 ft / 0 m
18 160 ft / 49 m 2,884 ft / 879 m 187.47° 186.28° Grass 0 ft / 0 m 0 ft / 0 m
30 75 ft / 23 m 3,957 ft / 1,206 m 311.74° 310.55° Concrete 0 ft / 0 m 0 ft / 0 m
36 160 ft / 49 m 2,884 ft / 879 m 7.47° 6.28° Grass 0 ft / 0 m 0 ft / 0 m

Map

Weather


0- 5 10 15 20 25 30 35+ Temperature / ° C

Clouds and Precipitation
Forecast for 2017-12-15 12:00 UTC. Updated an hour ago

Ground ~20,000 ft ~40,000 ft Winds

METAR

KAXA 151235Z AUTO 26012KT 10SM OVC048 M01/M01 A2993 RMK AO2 PWINO

TAF

Not found

Frequencies

Recorded 118.47 MHz AWOS 3
Unicom 122.80 MHz CTAF/UNICOM
Warning: Do not use this data for real-world aviation or navigation. No guarantee of current accuracy is given.